KJAN/JAN METAR and TAF weather

Enter ICAO airport designator
Station Type Date Time Source
KJAN METAR 2020/02/25 12:54 UTC NOAA

KJAN 251254Z 00000KT 1/4SM R16L/2200V4500FT FG VV002 08/07 A2985 RMK AO2 SLP106 T00830072


Station Type Date Time Source
KJAN Decoded METAR 2020/02/25 12:54 UTC NOAA

Jackson, Jackson International Airport, MS, United States (KJAN) 32-19-11N 090-04-39W 89M
Feb 25, 2020 - 07:54 AM EST / 2020.02.25 1254 UTC
Wind: Calm (direction variable):0
Visibility: 1/4 mile(s):0
Sky conditions: obscured
Weather: fog
Temperature: 46.9 F (8.3 C)
Dew Point: 45.0 F (7.2 C)
Relative Humidity: 92%
Pressure (altimeter): 29.85 in. Hg (1010 hPa)
ob: KJAN 251254Z 00000KT 1/4SM R16L/2200V4500FT FG VV002 08/07 A2985 RMK AO2 SLP106 T00830072
cycle: 13

Station Type Date Time Source
KJAN TAF 2020/02/25 12:40 UTC NOAA

TAF KJAN 251138Z 2512/2612 13003KT 3/4SM BR VV001
FM251500 30005KT P6SM BKN250
FM260800 29003KT P6SM OVC015

Example: see airport list